sensor_id;sensor_type;location;lat;lon;timestamp;P1;durP1;ratioP1;P2;durP2;ratioP2
68475;SDS011;55464;48.266;14.188;2023-06-14T00:02:09;4.18;;;2.40;;
68475;SDS011;55464;48.266;14.188;2023-06-14T00:04:34;1.40;;;1.30;;
68475;SDS011;55464;48.266;14.188;2023-06-14T00:07:00;2.20;;;1.80;;
68475;SDS011;55464;48.266;14.188;2023-06-14T00:09:25;7.18;;;1.52;;
68475;SDS011;55464;48.266;14.188;2023-06-14T00:11:51;3.40;;;1.90;;
68475;SDS011;55464;48.266;14.188;2023-06-14T00:14:17;3.22;;;1.67;;
68475;SDS011;55464;48.266;14.188;2023-06-14T00:16:42;4.60;;;2.05;;
68475;SDS011;55464;48.266;14.188;2023-06-14T00:19:10;5.40;;;1.95;;
68475;SDS011;55464;48.266;14.188;2023-06-14T00:21:36;1.83;;;1.73;;
68475;SDS011;55464;48.266;14.188;2023-06-14T00:24:02;1.67;;;1.58;;
68475;SDS011;55464;48.266;14.188;2023-06-14T00:26:29;4.35;;;2.00;;
68475;SDS011;55464;48.266;14.188;2023-06-14T00:28:54;2.38;;;1.50;;
68475;SDS011;55464;48.266;14.188;2023-06-14T00:31:21;7.75;;;2.22;;
68475;SDS011;55464;48.266;14.188;2023-06-14T00:33:47;2.17;;;1.88;;
68475;SDS011;55464;48.266;14.188;2023-06-14T00:36:12;2.70;;;1.67;;
68475;SDS011;55464;48.266;14.188;2023-06-14T00:38:38;5.78;;;2.33;;
68475;SDS011;55464;48.266;14.188;2023-06-14T00:41:03;2.28;;;2.08;;
68475;SDS011;55464;48.266;14.188;2023-06-14T00:43:29;2.33;;;1.80;;
68475;SDS011;55464;48.266;14.188;2023-06-14T00:45:54;3.88;;;1.75;;
68475;SDS011;55464;48.266;14.188;2023-06-14T00:48:20;4.20;;;2.13;;
68475;SDS011;55464;48.266;14.188;2023-06-14T00:50:46;4.53;;;1.88;;
68475;SDS011;55464;48.266;14.188;2023-06-14T00:53:14;2.03;;;1.70;;
68475;SDS011;55464;48.266;14.188;2023-06-14T00:55:42;3.05;;;1.90;;
68475;SDS011;55464;48.266;14.188;2023-06-14T00:58:08;4.50;;;2.08;;
68475;SDS011;55464;48.266;14.188;2023-06-14T01:00:34;2.78;;;2.10;;
68475;SDS011;55464;48.266;14.188;2023-06-14T01:03:00;4.53;;;2.00;;
68475;SDS011;55464;48.266;14.188;2023-06-14T01:05:26;2.20;;;1.98;;
68475;SDS011;55464;48.266;14.188;2023-06-14T01:13:42;4.43;;;2.05;;
68475;SDS011;55464;48.266;14.188;2023-06-14T01:16:10;2.65;;;1.75;;
68475;SDS011;55464;48.266;14.188;2023-06-14T01:18:37;3.97;;;1.80;;
68475;SDS011;55464;48.266;14.188;2023-06-14T01:21:03;3.10;;;1.67;;
68475;SDS011;55464;48.266;14.188;2023-06-14T01:23:31;6.68;;;2.03;;
68475;SDS011;55464;48.266;14.188;2023-06-14T01:25:58;3.20;;;2.00;;
68475;SDS011;55464;48.266;14.188;2023-06-14T01:28:25;6.45;;;2.03;;
68475;SDS011;55464;48.266;14.188;2023-06-14T01:30:56;3.55;;;2.03;;
68475;SDS011;55464;48.266;14.188;2023-06-14T01:33:28;1.65;;;1.55;;
68475;SDS011;55464;48.266;14.188;2023-06-14T01:35:54;2.00;;;1.88;;
68475;SDS011;55464;48.266;14.188;2023-06-14T01:38:27;5.05;;;2.47;;
68475;SDS011;55464;48.266;14.188;2023-06-14T01:40:54;5.18;;;2.70;;
68475;SDS011;55464;48.266;14.188;2023-06-14T01:43:22;4.75;;;1.88;;
68475;SDS011;55464;48.266;14.188;2023-06-14T01:45:48;3.53;;;2.20;;
68475;SDS011;55464;48.266;14.188;2023-06-14T01:48:16;2.92;;;1.95;;
68475;SDS011;55464;48.266;14.188;2023-06-14T01:50:42;2.70;;;2.38;;
68475;SDS011;55464;48.266;14.188;2023-06-14T01:53:08;5.47;;;2.10;;
68475;SDS011;55464;48.266;14.188;2023-06-14T01:55:34;3.05;;;2.25;;
68475;SDS011;55464;48.266;14.188;2023-06-14T01:58:02;4.05;;;2.38;;
68475;SDS011;55464;48.266;14.188;2023-06-14T02:00:28;2.67;;;2.33;;
68475;SDS011;55464;48.266;14.188;2023-06-14T02:02:53;7.55;;;3.35;;
68475;SDS011;55464;48.266;14.188;2023-06-14T02:05:19;5.25;;;2.40;;
68475;SDS011;55464;48.266;14.188;2023-06-14T02:07:44;4.25;;;2.30;;
68475;SDS011;55464;48.266;14.188;2023-06-14T02:10:11;3.25;;;2.15;;
68475;SDS011;55464;48.266;14.188;2023-06-14T02:12:36;3.10;;;2.22;;
68475;SDS011;55464;48.266;14.188;2023-06-14T02:15:02;4.03;;;2.40;;
68475;SDS011;55464;48.266;14.188;2023-06-14T02:17:29;3.78;;;1.90;;
68475;SDS011;55464;48.266;14.188;2023-06-14T02:19:54;3.58;;;2.30;;
68475;SDS011;55464;48.266;14.188;2023-06-14T02:22:21;4.57;;;2.50;;
68475;SDS011;55464;48.266;14.188;2023-06-14T02:24:47;3.50;;;2.47;;
68475;SDS011;55464;48.266;14.188;2023-06-14T02:27:12;6.40;;;2.25;;
68475;SDS011;55464;48.266;14.188;2023-06-14T02:29:38;7.57;;;2.30;;
68475;SDS011;55464;48.266;14.188;2023-06-14T02:32:04;7.60;;;2.40;;
68475;SDS011;55464;48.266;14.188;2023-06-14T02:34:30;6.05;;;2.72;;
68475;SDS011;55464;48.266;14.188;2023-06-14T02:36:55;5.68;;;2.53;;
68475;SDS011;55464;48.266;14.188;2023-06-14T02:39:22;3.53;;;2.50;;
68475;SDS011;55464;48.266;14.188;2023-06-14T02:41:48;4.28;;;2.22;;
68475;SDS011;55464;48.266;14.188;2023-06-14T02:44:15;4.15;;;2.63;;
68475;SDS011;55464;48.266;14.188;2023-06-14T02:46:42;6.13;;;2.30;;
68475;SDS011;55464;48.266;14.188;2023-06-14T02:49:08;3.42;;;2.20;;
68475;SDS011;55464;48.266;14.188;2023-06-14T02:51:34;7.22;;;2.35;;
68475;SDS011;55464;48.266;14.188;2023-06-14T02:54:00;3.47;;;2.38;;
68475;SDS011;55464;48.266;14.188;2023-06-14T02:56:25;3.03;;;2.47;;
68475;SDS011;55464;48.266;14.188;2023-06-14T02:58:51;5.57;;;2.20;;
68475;SDS011;55464;48.266;14.188;2023-06-14T03:01:18;4.20;;;3.08;;
68475;SDS011;55464;48.266;14.188;2023-06-14T03:03:44;3.40;;;2.63;;
68475;SDS011;55464;48.266;14.188;2023-06-14T03:06:09;8.05;;;2.42;;
68475;SDS011;55464;48.266;14.188;2023-06-14T03:08:38;7.55;;;2.72;;
68475;SDS011;55464;48.266;14.188;2023-06-14T03:11:04;2.67;;;2.35;;
68475;SDS011;55464;48.266;14.188;2023-06-14T03:13:30;4.18;;;2.28;;
68475;SDS011;55464;48.266;14.188;2023-06-14T03:15:57;4.75;;;2.65;;
68475;SDS011;55464;48.266;14.188;2023-06-14T03:18:23;3.22;;;2.28;;
68475;SDS011;55464;48.266;14.188;2023-06-14T03:20:50;4.38;;;2.38;;
68475;SDS011;55464;48.266;14.188;2023-06-14T03:23:16;2.88;;;2.22;;
68475;SDS011;55464;48.266;14.188;2023-06-14T03:25:42;2.70;;;2.30;;
68475;SDS011;55464;48.266;14.188;2023-06-14T03:28:08;2.50;;;2.30;;
68475;SDS011;55464;48.266;14.188;2023-06-14T03:30:33;5.60;;;2.63;;
68475;SDS011;55464;48.266;14.188;2023-06-14T03:32:58;5.32;;;2.40;;
68475;SDS011;55464;48.266;14.188;2023-06-14T03:35:26;2.47;;;2.28;;
68475;SDS011;55464;48.266;14.188;2023-06-14T03:37:52;2.40;;;2.20;;
68475;SDS011;55464;48.266;14.188;2023-06-14T03:40:17;5.78;;;2.47;;
68475;SDS011;55464;48.266;14.188;2023-06-14T03:42:44;2.67;;;2.40;;
68475;SDS011;55464;48.266;14.188;2023-06-14T03:45:09;2.42;;;2.20;;
68475;SDS011;55464;48.266;14.188;2023-06-14T03:47:35;3.85;;;2.53;;
68475;SDS011;55464;48.266;14.188;2023-06-14T03:50:01;3.47;;;2.30;;
68475;SDS011;55464;48.266;14.188;2023-06-14T03:52:28;7.55;;;2.30;;
68475;SDS011;55464;48.266;14.188;2023-06-14T03:54:54;3.58;;;2.67;;
68475;SDS011;55464;48.266;14.188;2023-06-14T03:57:19;4.68;;;2.38;;
68475;SDS011;55464;48.266;14.188;2023-06-14T03:59:48;3.20;;;2.05;;
68475;SDS011;55464;48.266;14.188;2023-06-14T04:02:13;2.47;;;2.28;;
68475;SDS011;55464;48.266;14.188;2023-06-14T04:04:42;5.45;;;2.42;;
68475;SDS011;55464;48.266;14.188;2023-06-14T04:07:13;3.08;;;2.50;;
68475;SDS011;55464;48.266;14.188;2023-06-14T04:09:39;4.78;;;2.42;;
68475;SDS011;55464;48.266;14.188;2023-06-14T04:12:05;3.03;;;2.20;;
68475;SDS011;55464;48.266;14.188;2023-06-14T04:14:31;2.60;;;2.38;;
68475;SDS011;55464;48.266;14.188;2023-06-14T04:17:00;3.38;;;2.17;;
68475;SDS011;55464;48.266;14.188;2023-06-14T04:19:25;6.97;;;2.70;;
68475;SDS011;55464;48.266;14.188;2023-06-14T04:21:51;3.38;;;2.45;;
68475;SDS011;55464;48.266;14.188;2023-06-14T04:24:16;5.18;;;2.50;;
68475;SDS011;55464;48.266;14.188;2023-06-14T04:26:42;3.88;;;2.40;;
68475;SDS011;55464;48.266;14.188;2023-06-14T04:29:13;6.35;;;2.67;;
68475;SDS011;55464;48.266;14.188;2023-06-14T04:31:41;3.00;;;2.65;;
68475;SDS011;55464;48.266;14.188;2023-06-14T04:34:10;2.70;;;2.50;;
68475;SDS011;55464;48.266;14.188;2023-06-14T04:36:41;3.92;;;2.67;;
68475;SDS011;55464;48.266;14.188;2023-06-14T04:39:14;3.00;;;2.38;;
68475;SDS011;55464;48.266;14.188;2023-06-14T04:41:45;2.83;;;2.58;;
68475;SDS011;55464;48.266;14.188;2023-06-14T04:44:11;3.90;;;2.80;;
68475;SDS011;55464;48.266;14.188;2023-06-14T04:46:38;3.03;;;2.10;;
68475;SDS011;55464;48.266;14.188;2023-06-14T04:49:11;7.28;;;2.70;;
68475;SDS011;55464;48.266;14.188;2023-06-14T04:51:42;3.40;;;2.58;;
68475;SDS011;55464;48.266;14.188;2023-06-14T04:54:08;3.63;;;2.47;;
68475;SDS011;55464;48.266;14.188;2023-06-14T04:56:43;6.05;;;3.38;;
68475;SDS011;55464;48.266;14.188;2023-06-14T04:59:08;4.55;;;3.30;;
68475;SDS011;55464;48.266;14.188;2023-06-14T05:01:36;3.22;;;2.90;;
68475;SDS011;55464;48.266;14.188;2023-06-14T05:04:02;5.57;;;2.60;;
68475;SDS011;55464;48.266;14.188;2023-06-14T05:06:28;8.55;;;2.65;;
68475;SDS011;55464;48.266;14.188;2023-06-14T05:08:54;4.45;;;2.63;;
68475;SDS011;55464;48.266;14.188;2023-06-14T05:11:19;6.57;;;2.78;;
68475;SDS011;55464;48.266;14.188;2023-06-14T05:13:45;5.00;;;3.00;;
68475;SDS011;55464;48.266;14.188;2023-06-14T05:16:11;4.32;;;2.47;;
68475;SDS011;55464;48.266;14.188;2023-06-14T05:18:37;4.75;;;3.10;;
68475;SDS011;55464;48.266;14.188;2023-06-14T05:21:03;4.85;;;2.58;;
68475;SDS011;55464;48.266;14.188;2023-06-14T05:23:30;3.58;;;3.00;;
68475;SDS011;55464;48.266;14.188;2023-06-14T05:25:56;4.72;;;2.97;;
68475;SDS011;55464;48.266;14.188;2023-06-14T05:28:21;6.57;;;3.72;;
68475;SDS011;55464;48.266;14.188;2023-06-14T05:30:47;5.93;;;3.72;;
68475;SDS011;55464;48.266;14.188;2023-06-14T05:33:13;7.53;;;3.88;;
68475;SDS011;55464;48.266;14.188;2023-06-14T05:35:38;5.93;;;3.28;;
68475;SDS011;55464;48.266;14.188;2023-06-14T05:38:03;8.30;;;3.70;;
68475;SDS011;55464;48.266;14.188;2023-06-14T05:40:29;6.15;;;3.35;;
68475;SDS011;55464;48.266;14.188;2023-06-14T05:42:55;5.95;;;3.80;;
68475;SDS011;55464;48.266;14.188;2023-06-14T05:45:20;7.90;;;3.83;;
68475;SDS011;55464;48.266;14.188;2023-06-14T05:47:46;5.57;;;3.50;;
68475;SDS011;55464;48.266;14.188;2023-06-14T05:50:11;5.70;;;3.80;;
68475;SDS011;55464;48.266;14.188;2023-06-14T05:52:36;5.43;;;3.88;;
68475;SDS011;55464;48.266;14.188;2023-06-14T05:55:02;5.90;;;3.20;;
68475;SDS011;55464;48.266;14.188;2023-06-14T05:57:29;11.48;;;3.60;;
68475;SDS011;55464;48.266;14.188;2023-06-14T05:59:54;6.00;;;3.40;;
68475;SDS011;55464;48.266;14.188;2023-06-14T06:02:20;6.70;;;3.58;;
68475;SDS011;55464;48.266;14.188;2023-06-14T06:04:45;4.00;;;3.20;;
68475;SDS011;55464;48.266;14.188;2023-06-14T06:07:11;6.38;;;3.55;;
68475;SDS011;55464;48.266;14.188;2023-06-14T06:09:36;5.70;;;3.35;;
68475;SDS011;55464;48.266;14.188;2023-06-14T06:12:02;5.50;;;2.95;;
68475;SDS011;55464;48.266;14.188;2023-06-14T06:14:27;5.30;;;3.50;;
68475;SDS011;55464;48.266;14.188;2023-06-14T06:16:53;7.93;;;3.53;;
68475;SDS011;55464;48.266;14.188;2023-06-14T06:19:19;3.25;;;2.95;;
68475;SDS011;55464;48.266;14.188;2023-06-14T06:21:44;3.65;;;3.00;;
68475;SDS011;55464;48.266;14.188;2023-06-14T06:24:10;8.10;;;3.28;;
68475;SDS011;55464;48.266;14.188;2023-06-14T06:26:35;4.90;;;2.92;;
68475;SDS011;55464;48.266;14.188;2023-06-14T06:29:01;5.65;;;3.40;;
68475;SDS011;55464;48.266;14.188;2023-06-14T06:31:26;3.53;;;3.10;;
68475;SDS011;55464;48.266;14.188;2023-06-14T06:33:52;3.90;;;2.92;;
68475;SDS011;55464;48.266;14.188;2023-06-14T06:36:19;5.00;;;3.03;;
68475;SDS011;55464;48.266;14.188;2023-06-14T06:38:45;6.03;;;3.75;;
68475;SDS011;55464;48.266;14.188;2023-06-14T06:41:10;5.20;;;3.10;;
68475;SDS011;55464;48.266;14.188;2023-06-14T06:43:35;5.30;;;3.38;;
68475;SDS011;55464;48.266;14.188;2023-06-14T06:46:01;5.47;;;3.50;;
68475;SDS011;55464;48.266;14.188;2023-06-14T06:48:27;5.57;;;3.50;;
68475;SDS011;55464;48.266;14.188;2023-06-14T06:50:52;5.75;;;3.47;;
68475;SDS011;55464;48.266;14.188;2023-06-14T06:53:17;5.85;;;3.42;;
68475;SDS011;55464;48.266;14.188;2023-06-14T06:55:44;6.25;;;3.30;;
68475;SDS011;55464;48.266;14.188;2023-06-14T06:58:10;5.65;;;3.10;;
68475;SDS011;55464;48.266;14.188;2023-06-14T07:00:35;5.15;;;3.83;;
68475;SDS011;55464;48.266;14.188;2023-06-14T07:03:01;7.20;;;3.15;;
68475;SDS011;55464;48.266;14.188;2023-06-14T07:05:26;6.13;;;3.72;;
68475;SDS011;55464;48.266;14.188;2023-06-14T07:07:52;4.45;;;3.08;;
68475;SDS011;55464;48.266;14.188;2023-06-14T07:10:17;8.57;;;3.40;;
68475;SDS011;55464;48.266;14.188;2023-06-14T07:12:43;5.55;;;3.13;;
68475;SDS011;55464;48.266;14.188;2023-06-14T07:15:09;9.65;;;3.40;;
68475;SDS011;55464;48.266;14.188;2023-06-14T07:17:34;5.18;;;3.42;;
68475;SDS011;55464;48.266;14.188;2023-06-14T07:20:01;5.13;;;3.15;;
68475;SDS011;55464;48.266;14.188;2023-06-14T07:22:32;8.70;;;4.10;;
68475;SDS011;55464;48.266;14.188;2023-06-14T07:24:57;5.90;;;3.33;;
68475;SDS011;55464;48.266;14.188;2023-06-14T07:27:23;5.25;;;3.22;;
68475;SDS011;55464;48.266;14.188;2023-06-14T07:29:48;8.38;;;4.40;;
68475;SDS011;55464;48.266;14.188;2023-06-14T07:32:14;7.00;;;3.42;;
68475;SDS011;55464;48.266;14.188;2023-06-14T07:34:39;8.88;;;4.22;;
68475;SDS011;55464;48.266;14.188;2023-06-14T07:37:04;7.63;;;4.05;;
68475;SDS011;55464;48.266;14.188;2023-06-14T07:39:30;5.68;;;4.10;;
68475;SDS011;55464;48.266;14.188;2023-06-14T07:41:55;6.95;;;4.30;;
68475;SDS011;55464;48.266;14.188;2023-06-14T07:44:20;9.00;;;4.32;;
68475;SDS011;55464;48.266;14.188;2023-06-14T07:46:46;5.47;;;3.65;;
68475;SDS011;55464;48.266;14.188;2023-06-14T07:49:14;7.53;;;3.38;;
68475;SDS011;55464;48.266;14.188;2023-06-14T07:51:39;5.93;;;3.33;;
68475;SDS011;55464;48.266;14.188;2023-06-14T07:54:05;6.43;;;4.00;;
68475;SDS011;55464;48.266;14.188;2023-06-14T07:56:32;6.95;;;3.15;;
68475;SDS011;55464;48.266;14.188;2023-06-14T07:58:58;5.60;;;3.03;;
68475;SDS011;55464;48.266;14.188;2023-06-14T08:01:23;5.07;;;3.17;;
68475;SDS011;55464;48.266;14.188;2023-06-14T08:03:50;3.90;;;2.60;;
68475;SDS011;55464;48.266;14.188;2023-06-14T08:06:15;6.47;;;3.15;;
68475;SDS011;55464;48.266;14.188;2023-06-14T08:08:41;5.10;;;2.97;;
68475;SDS011;55464;48.266;14.188;2023-06-14T08:11:06;3.67;;;2.67;;
68475;SDS011;55464;48.266;14.188;2023-06-14T08:13:32;6.20;;;3.72;;
68475;SDS011;55464;48.266;14.188;2023-06-14T08:15:57;3.20;;;2.53;;
68475;SDS011;55464;48.266;14.188;2023-06-14T08:18:23;4.07;;;3.08;;
68475;SDS011;55464;48.266;14.188;2023-06-14T08:20:48;8.77;;;2.80;;
68475;SDS011;55464;48.266;14.188;2023-06-14T08:23:15;4.88;;;2.78;;
68475;SDS011;55464;48.266;14.188;2023-06-14T08:25:44;5.65;;;3.10;;
68475;SDS011;55464;48.266;14.188;2023-06-14T08:28:09;5.30;;;2.75;;
68475;SDS011;55464;48.266;14.188;2023-06-14T08:30:35;5.28;;;2.90;;
68475;SDS011;55464;48.266;14.188;2023-06-14T08:33:00;3.65;;;2.67;;
68475;SDS011;55464;48.266;14.188;2023-06-14T08:35:26;7.57;;;3.13;;
68475;SDS011;55464;48.266;14.188;2023-06-14T08:37:51;5.45;;;3.50;;
68475;SDS011;55464;48.266;14.188;2023-06-14T08:40:18;3.67;;;2.85;;
68475;SDS011;55464;48.266;14.188;2023-06-14T08:42:51;4.38;;;2.70;;
68475;SDS011;55464;48.266;14.188;2023-06-14T08:45:22;5.25;;;3.15;;
68475;SDS011;55464;48.266;14.188;2023-06-14T08:47:48;8.18;;;3.65;;
68475;SDS011;55464;48.266;14.188;2023-06-14T08:50:22;3.60;;;2.88;;
68475;SDS011;55464;48.266;14.188;2023-06-14T08:52:55;8.02;;;2.90;;
68475;SDS011;55464;48.266;14.188;2023-06-14T08:55:28;6.43;;;3.08;;
68475;SDS011;55464;48.266;14.188;2023-06-14T08:57:55;6.28;;;3.22;;
68475;SDS011;55464;48.266;14.188;2023-06-14T09:00:22;7.88;;;3.45;;
68475;SDS011;55464;48.266;14.188;2023-06-14T09:02:49;6.13;;;3.10;;
68475;SDS011;55464;48.266;14.188;2023-06-14T09:05:20;6.45;;;3.17;;
68475;SDS011;55464;48.266;14.188;2023-06-14T09:07:49;5.10;;;3.30;;
68475;SDS011;55464;48.266;14.188;2023-06-14T09:10:16;8.32;;;3.25;;
68475;SDS011;55464;48.266;14.188;2023-06-14T09:12:42;3.15;;;2.63;;
68475;SDS011;55464;48.266;14.188;2023-06-14T09:15:08;6.78;;;3.40;;
68475;SDS011;55464;48.266;14.188;2023-06-14T09:17:38;6.22;;;3.35;;
68475;SDS011;55464;48.266;14.188;2023-06-14T09:20:07;7.65;;;3.42;;
68475;SDS011;55464;48.266;14.188;2023-06-14T09:22:35;6.75;;;3.20;;
68475;SDS011;55464;48.266;14.188;2023-06-14T09:25:03;4.90;;;2.65;;
68475;SDS011;55464;48.266;14.188;2023-06-14T09:27:29;4.75;;;3.20;;
68475;SDS011;55464;48.266;14.188;2023-06-14T09:29:55;4.85;;;3.40;;
68475;SDS011;55464;48.266;14.188;2023-06-14T09:32:23;3.85;;;2.80;;
68475;SDS011;55464;48.266;14.188;2023-06-14T09:34:49;4.95;;;3.03;;
68475;SDS011;55464;48.266;14.188;2023-06-14T09:37:27;6.72;;;3.28;;
68475;SDS011;55464;48.266;14.188;2023-06-14T09:39:54;3.60;;;3.10;;
68475;SDS011;55464;48.266;14.188;2023-06-14T09:42:20;6.22;;;2.80;;
68475;SDS011;55464;48.266;14.188;2023-06-14T09:44:46;7.75;;;2.85;;
68475;SDS011;55464;48.266;14.188;2023-06-14T09:47:14;6.85;;;2.47;;
68475;SDS011;55464;48.266;14.188;2023-06-14T09:49:40;5.43;;;2.50;;
68475;SDS011;55464;48.266;14.188;2023-06-14T09:52:06;3.95;;;2.80;;
68475;SDS011;55464;48.266;14.188;2023-06-14T09:54:33;5.15;;;2.75;;
68475;SDS011;55464;48.266;14.188;2023-06-14T09:57:05;6.30;;;2.63;;
68475;SDS011;55464;48.266;14.188;2023-06-14T09:59:32;3.22;;;2.60;;
68475;SDS011;55464;48.266;14.188;2023-06-14T10:01:59;4.07;;;2.65;;
68475;SDS011;55464;48.266;14.188;2023-06-14T10:04:29;9.85;;;3.00;;
68475;SDS011;55464;48.266;14.188;2023-06-14T10:06:56;5.45;;;2.30;;
68475;SDS011;55464;48.266;14.188;2023-06-14T10:09:22;4.28;;;2.67;;
68475;SDS011;55464;48.266;14.188;2023-06-14T10:11:48;5.32;;;2.80;;
68475;SDS011;55464;48.266;14.188;2023-06-14T10:14:14;6.32;;;2.53;;
68475;SDS011;55464;48.266;14.188;2023-06-14T10:16:54;3.03;;;2.60;;
68475;SDS011;55464;48.266;14.188;2023-06-14T10:19:27;3.80;;;2.60;;
68475;SDS011;55464;48.266;14.188;2023-06-14T10:24:37;5.85;;;3.10;;
68475;SDS011;55464;48.266;14.188;2023-06-14T10:27:06;3.78;;;2.25;;
68475;SDS011;55464;48.266;14.188;2023-06-14T10:29:35;5.25;;;2.85;;
68475;SDS011;55464;48.266;14.188;2023-06-14T10:32:26;13.18;;;3.70;;
68475;SDS011;55464;48.266;14.188;2023-06-14T10:34:54;5.05;;;2.70;;
68475;SDS011;55464;48.266;14.188;2023-06-14T10:37:21;4.90;;;3.47;;
68475;SDS011;55464;48.266;14.188;2023-06-14T10:39:46;3.28;;;2.63;;
68475;SDS011;55464;48.266;14.188;2023-06-14T10:42:12;3.55;;;2.67;;
68475;SDS011;55464;48.266;14.188;2023-06-14T10:44:39;3.65;;;2.53;;
68475;SDS011;55464;48.266;14.188;2023-06-14T10:47:07;8.07;;;2.95;;
68475;SDS011;55464;48.266;14.188;2023-06-14T10:49:44;2.97;;;2.13;;
68475;SDS011;55464;48.266;14.188;2023-06-14T10:52:11;4.78;;;2.55;;
68475;SDS011;55464;48.266;14.188;2023-06-14T10:57:34;9.63;;;3.03;;
68475;SDS011;55464;48.266;14.188;2023-06-14T11:00:23;8.63;;;2.83;;
68475;SDS011;55464;48.266;14.188;2023-06-14T11:02:52;4.20;;;3.00;;
68475;SDS011;55464;48.266;14.188;2023-06-14T11:11:06;3.40;;;2.47;;
68475;SDS011;55464;48.266;14.188;2023-06-14T11:13:34;5.47;;;3.08;;
68475;SDS011;55464;48.266;14.188;2023-06-14T11:16:03;4.63;;;2.65;;
68475;SDS011;55464;48.266;14.188;2023-06-14T11:18:35;6.60;;;2.58;;
68475;SDS011;55464;48.266;14.188;2023-06-14T11:21:01;3.65;;;2.33;;
68475;SDS011;55464;48.266;14.188;2023-06-14T11:23:27;3.42;;;2.53;;
68475;SDS011;55464;48.266;14.188;2023-06-14T11:25:53;3.50;;;2.88;;
68475;SDS011;55464;48.266;14.188;2023-06-14T11:28:18;4.68;;;2.85;;
68475;SDS011;55464;48.266;14.188;2023-06-14T11:30:46;5.68;;;2.45;;
68475;SDS011;55464;48.266;14.188;2023-06-14T11:33:14;7.20;;;2.67;;
68475;SDS011;55464;48.266;14.188;2023-06-14T11:35:43;6.05;;;2.67;;
68475;SDS011;55464;48.266;14.188;2023-06-14T11:38:10;3.90;;;2.40;;
68475;SDS011;55464;48.266;14.188;2023-06-14T11:40:37;3.42;;;2.60;;
68475;SDS011;55464;48.266;14.188;2023-06-14T11:43:03;3.70;;;2.60;;
68475;SDS011;55464;48.266;14.188;2023-06-14T11:45:29;3.58;;;2.58;;
68475;SDS011;55464;48.266;14.188;2023-06-14T11:47:55;7.85;;;2.60;;
68475;SDS011;55464;48.266;14.188;2023-06-14T11:50:22;5.50;;;2.83;;
68475;SDS011;55464;48.266;14.188;2023-06-14T11:52:54;5.65;;;2.20;;
68475;SDS011;55464;48.266;14.188;2023-06-14T11:55:21;4.85;;;2.55;;
68475;SDS011;55464;48.266;14.188;2023-06-14T11:57:47;7.53;;;2.83;;
68475;SDS011;55464;48.266;14.188;2023-06-14T12:00:13;5.40;;;3.28;;
68475;SDS011;55464;48.266;14.188;2023-06-14T12:02:40;3.53;;;2.92;;
68475;SDS011;55464;48.266;14.188;2023-06-14T12:05:06;6.85;;;3.20;;
68475;SDS011;55464;48.266;14.188;2023-06-14T12:07:36;4.22;;;3.35;;
68475;SDS011;55464;48.266;14.188;2023-06-14T12:12:28;5.70;;;4.00;;
68475;SDS011;55464;48.266;14.188;2023-06-14T12:14:55;4.18;;;2.80;;
68475;SDS011;55464;48.266;14.188;2023-06-14T12:17:21;4.55;;;3.33;;
68475;SDS011;55464;48.266;14.188;2023-06-14T12:19:48;3.13;;;2.75;;
68475;SDS011;55464;48.266;14.188;2023-06-14T12:22:15;3.42;;;2.85;;
68475;SDS011;55464;48.266;14.188;2023-06-14T12:24:44;4.13;;;3.50;;
68475;SDS011;55464;48.266;14.188;2023-06-14T12:27:10;4.00;;;3.03;;
68475;SDS011;55464;48.266;14.188;2023-06-14T12:29:40;4.72;;;2.90;;
68475;SDS011;55464;48.266;14.188;2023-06-14T12:32:08;5.57;;;3.30;;
68475;SDS011;55464;48.266;14.188;2023-06-14T12:34:34;4.93;;;3.40;;
68475;SDS011;55464;48.266;14.188;2023-06-14T12:37:00;3.38;;;3.08;;
68475;SDS011;55464;48.266;14.188;2023-06-14T12:39:26;3.50;;;3.20;;
68475;SDS011;55464;48.266;14.188;2023-06-14T12:41:51;3.70;;;2.90;;
68475;SDS011;55464;48.266;14.188;2023-06-14T12:44:16;6.25;;;3.45;;
68475;SDS011;55464;48.266;14.188;2023-06-14T12:46:42;7.35;;;3.30;;
68475;SDS011;55464;48.266;14.188;2023-06-14T12:49:09;3.08;;;2.80;;
68475;SDS011;55464;48.266;14.188;2023-06-14T12:51:35;5.20;;;3.10;;
68475;SDS011;55464;48.266;14.188;2023-06-14T12:54:01;4.70;;;2.75;;
68475;SDS011;55464;48.266;14.188;2023-06-14T12:56:26;3.88;;;2.50;;
68475;SDS011;55464;48.266;14.188;2023-06-14T12:58:52;3.85;;;2.47;;
68475;SDS011;55464;48.266;14.188;2023-06-14T13:01:17;2.55;;;2.30;;
68475;SDS011;55464;48.266;14.188;2023-06-14T13:03:43;2.72;;;2.45;;
68475;SDS011;55464;48.266;14.188;2023-06-14T13:06:09;4.10;;;2.22;;
68475;SDS011;55464;48.266;14.188;2023-06-14T13:08:34;3.50;;;2.30;;
68475;SDS011;55464;48.266;14.188;2023-06-14T13:11:00;3.83;;;2.17;;
68475;SDS011;55464;48.266;14.188;2023-06-14T13:13:25;5.18;;;2.55;;
68475;SDS011;55464;48.266;14.188;2023-06-14T13:15:51;2.67;;;2.05;;
68475;SDS011;55464;48.266;14.188;2023-06-14T13:18:16;3.97;;;2.60;;
68475;SDS011;55464;48.266;14.188;2023-06-14T13:20:42;2.28;;;2.00;;
68475;SDS011;55464;48.266;14.188;2023-06-14T13:23:07;2.75;;;2.17;;
68475;SDS011;55464;48.266;14.188;2023-06-14T13:25:34;2.30;;;2.10;;
68475;SDS011;55464;48.266;14.188;2023-06-14T13:28:00;4.55;;;2.10;;
68475;SDS011;55464;48.266;14.188;2023-06-14T13:30:25;2.33;;;2.10;;
68475;SDS011;55464;48.266;14.188;2023-06-14T13:32:51;2.67;;;2.17;;
68475;SDS011;55464;48.266;14.188;2023-06-14T13:35:17;4.05;;;1.90;;
68475;SDS011;55464;48.266;14.188;2023-06-14T13:37:43;4.05;;;2.22;;
68475;SDS011;55464;48.266;14.188;2023-06-14T13:40:09;2.47;;;2.17;;
68475;SDS011;55464;48.266;14.188;2023-06-14T13:42:35;5.13;;;2.60;;
68475;SDS011;55464;48.266;14.188;2023-06-14T13:45:01;2.70;;;2.15;;
68475;SDS011;55464;48.266;14.188;2023-06-14T13:47:28;2.72;;;2.00;;
68475;SDS011;55464;48.266;14.188;2023-06-14T13:49:53;3.58;;;2.28;;
68475;SDS011;55464;48.266;14.188;2023-06-14T13:52:18;4.18;;;2.50;;
68475;SDS011;55464;48.266;14.188;2023-06-14T13:54:44;5.10;;;2.83;;
68475;SDS011;55464;48.266;14.188;2023-06-14T13:57:09;3.80;;;2.38;;
68475;SDS011;55464;48.266;14.188;2023-06-14T13:59:37;10.93;;;2.60;;
68475;SDS011;55464;48.266;14.188;2023-06-14T14:02:03;3.35;;;2.45;;
68475;SDS011;55464;48.266;14.188;2023-06-14T14:04:30;7.35;;;3.50;;
68475;SDS011;55464;48.266;14.188;2023-06-14T14:06:56;2.78;;;2.20;;
68475;SDS011;55464;48.266;14.188;2023-06-14T14:09:22;2.55;;;2.13;;
68475;SDS011;55464;48.266;14.188;2023-06-14T14:11:47;5.68;;;2.38;;
68475;SDS011;55464;48.266;14.188;2023-06-14T14:14:13;4.80;;;2.25;;
68475;SDS011;55464;48.266;14.188;2023-06-14T14:16:39;3.33;;;1.90;;
68475;SDS011;55464;48.266;14.188;2023-06-14T14:19:04;3.40;;;1.90;;
68475;SDS011;55464;48.266;14.188;2023-06-14T14:21:31;2.65;;;2.25;;
68475;SDS011;55464;48.266;14.188;2023-06-14T14:23:57;4.68;;;2.65;;
68475;SDS011;55464;48.266;14.188;2023-06-14T14:26:22;4.07;;;2.58;;
68475;SDS011;55464;48.266;14.188;2023-06-14T14:28:48;2.72;;;1.90;;
68475;SDS011;55464;48.266;14.188;2023-06-14T14:31:14;2.35;;;2.15;;
68475;SDS011;55464;48.266;14.188;2023-06-14T14:33:39;3.65;;;2.47;;
68475;SDS011;55464;48.266;14.188;2023-06-14T14:36:04;5.30;;;2.80;;
68475;SDS011;55464;48.266;14.188;2023-06-14T14:38:31;3.65;;;2.72;;
68475;SDS011;55464;48.266;14.188;2023-06-14T14:40:57;6.20;;;2.35;;
68475;SDS011;55464;48.266;14.188;2023-06-14T14:43:23;2.97;;;2.30;;
68475;SDS011;55464;48.266;14.188;2023-06-14T14:45:48;3.97;;;2.35;;
68475;SDS011;55464;48.266;14.188;2023-06-14T14:48:13;3.00;;;2.20;;
68475;SDS011;55464;48.266;14.188;2023-06-14T14:50:39;2.20;;;1.77;;